Callaway, Florida
Current Conditions -  °F | °C
As of 8:58 PM on Thursday 27 Nov 2014 (Local Time) from KPAM Reporting Station
Clear Clear  
Wind Chill: 44°   Ceiling: Unl
Heat Index: 48°   Visibility: 10mi
Dew Point: 35°   Wind: 7mph
Humidity: 62%   Direction: 10°N
Pressure: 30.39"   Gusts: NA
Location:  30.1957°N, 85.4833°W
Report Text: KPAM 280258Z AUTO 01006KT 10SM CLR 09/02 A3039 RMK AO2 SLP294 T00870018 52013 $
Loading
Personal Weather Stations






























Interactive Weather Map New forecast layout! Learn more

10-Day Weather Forecast

Advertisements
Track Severe Weather on mobile